OMDBOPPS

Guest
Details From OMDB - Dubai Intl
To OPPS - Peshawar Intl
Flight Number -
Tags Generated
Created
Modified
Stats Distance 992 nm / 1,837 km
Max Altitude 0 ft / 0 m
Waypoints 3
Social Downloads 3
Likes 0
Share VATSIM

Download

Looking for another format? Having issues loading an existing format? Contact us
Advertisement - Login to hide

Notes

Generated

Route

OMDB PS OPPS

ID Type Via Altitude Latitude Longitude Leg Dist Tot Dist Heading (true) Name
O OMDB APT - 0 ft / 0 m 25.26213˚ 55.34757˚ - 0 nm - -
PS NDB - 0 ft / 0 m 33.99583˚ 71.50444˚ 991 nm 991 nm 54° / 62° PESHAWAR NDB
O OPPS APT - 0 ft / 0 m 34.00601˚ 71.51354˚ 0 nm 992 nm 37° / 37° -

Altitude Profile

Advertisement - Login to hide

Weather


0- 5 10 15 20 25 30 35+ Temperature / ° C

Clouds and Precipitation
Forecast for 2017-12-13 18:00 UTC. Updated an hour ago

Ground ~20,000 ft ~40,000 ft Winds

OMDB

Details ICAO OMDB (DXB)
Name DUBAI INTL
Region United Arab Emirates
Timezone Asia/Dubai (UTC+4.0)
Stats Elevation 62 ft / 19 m (AMSL)
Location 25.254912° 55.364260°
Runways 2
Magnetic Variation 2.047° E

METAR

OMDB 131800Z 08008KT 030V120 CAVOK 22/08 Q1017 NOSIG

Decode

TAF

TAF OMDB 131656Z 1318/1500 08008KT 8000 NSC BECMG 1404/1406 17010KT BECMG 1409/1411 35013KT BECMG 1414/1416 15008KT

Decode

Departure Runways

ID Width Length Bearing (true) Bearing (mag) Surface Threshold Offset Overrun Length
12L 197 ft / 60 m 13,124 ft / 4,000 m 121.49° 119.44° Asphalt 1,312 ft / 400 m 395 ft / 120 m
12R 151 ft / 46 m 13,139 ft / 4,005 m 121.48° 119.43° Asphalt 394 ft / 120 m 197 ft / 60 m
30L 151 ft / 46 m 13,139 ft / 4,005 m 301.50° 299.45° Asphalt 2,953 ft / 900 m 197 ft / 60 m
30R 197 ft / 60 m 13,124 ft / 4,000 m 301.51° 299.46° Asphalt 0 ft / 0 m 395 ft / 120 m

OPPS

Details ICAO OPPS (PEW)
Name OPPS Peshawar, Peshawar Intl Airport
Region Pakistan
Timezone Asia/Karachi (UTC+5.0)
Stats Elevation 1,158 ft / 353 m (AMSL)
Location 33.993911° 71.514581°
Runways 1
Magnetic Variation 2.835° E

METAR

OPPS 131830Z 23006KT 4000 VCTS FEW025TCU SCT030 BKN080 11/08 Q1022

Decode

TAF

Not found

Destination Runways

ID Width Length Bearing (true) Bearing (mag) Surface Threshold Offset Overrun Length
17 151 ft / 46 m 9,008 ft / 2,746 m 176.00° 173.16° Asphalt 0 ft / 0 m 791 ft / 241 m
35 151 ft / 46 m 9,008 ft / 2,746 m 356.00° 353.16° Asphalt 0 ft / 0 m 1,047 ft / 319 m